createdAt,value
2022-09-30T00:01:26.834Z,16.75
2022-09-30T00:03:55.340Z,16.78
2022-09-30T00:06:26.050Z,16.80
2022-09-30T00:08:53.933Z,16.84
2022-09-30T00:11:25.454Z,16.88
2022-09-30T00:13:53.788Z,16.89
2022-09-30T00:16:23.794Z,16.90
2022-09-30T00:18:53.003Z,16.88
2022-09-30T00:21:20.273Z,16.86
2022-09-30T00:23:49.087Z,16.84
2022-09-30T00:26:20.881Z,16.76
2022-09-30T00:28:51.658Z,16.72
2022-09-30T00:31:21.795Z,16.71
2022-09-30T00:34:06.930Z,16.77
2022-09-30T00:36:38.067Z,16.80
2022-09-30T00:39:09.231Z,16.85
2022-09-30T00:41:37.681Z,16.86
2022-09-30T00:44:50.894Z,16.82
2022-09-30T00:47:45.112Z,16.80
2022-09-30T00:50:36.398Z,16.77
2022-09-30T00:53:14.507Z,16.75
2022-09-30T00:55:54.442Z,16.73
2022-09-30T00:58:30.512Z,16.72
2022-09-30T01:01:01.797Z,16.72
2022-09-30T01:03:32.109Z,16.73
2022-09-30T01:05:59.494Z,16.72
2022-09-30T01:08:28.618Z,16.70
2022-09-30T01:10:57.243Z,16.71
2022-09-30T01:13:28.789Z,16.68
2022-09-30T01:16:31.932Z,16.58
2022-09-30T01:19:39.219Z,16.49
2022-09-30T01:22:26.111Z,16.45
2022-09-30T01:25:47.014Z,16.42
2022-09-30T01:29:05.666Z,16.37
2022-09-30T01:31:54.180Z,16.35
2022-09-30T01:34:38.785Z,16.35
2022-09-30T01:37:20.302Z,16.33
2022-09-30T01:40:02.946Z,16.32
2022-09-30T01:42:45.607Z,16.29
2022-09-30T01:45:20.653Z,16.25
2022-09-30T01:47:57.962Z,16.24
2022-09-30T01:50:36.828Z,16.24
2022-09-30T01:53:15.649Z,16.26
2022-09-30T01:55:51.097Z,16.24
2022-09-30T01:58:35.119Z,16.22
2022-09-30T02:01:10.238Z,16.23
2022-09-30T02:03:48.074Z,16.22
2022-09-30T02:06:22.509Z,16.17
2022-09-30T02:08:58.577Z,16.13
2022-09-30T02:11:29.858Z,16.18
2022-09-30T02:14:05.019Z,16.16
2022-09-30T02:16:39.928Z,16.13
2022-09-30T02:19:18.849Z,16.12
2022-09-30T02:21:56.172Z,16.15
2022-09-30T02:24:27.220Z,16.01
2022-09-30T02:27:01.254Z,15.80
2022-09-30T02:29:36.902Z,15.62
2022-09-30T02:32:13.914Z,15.45
2022-09-30T02:34:48.917Z,15.29
2022-09-30T02:37:21.713Z,15.17
2022-09-30T02:39:57.656Z,15.08
2022-09-30T02:42:28.913Z,15.00
2022-09-30T02:45:01.935Z,15.01
2022-09-30T02:47:41.687Z,15.04
2022-09-30T02:50:21.110Z,14.98
2022-09-30T02:53:10.634Z,14.93
2022-09-30T02:55:58.104Z,14.88
2022-09-30T02:58:26.182Z,14.87
2022-09-30T03:00:54.946Z,14.85
2022-09-30T03:03:28.029Z,14.82
2022-09-30T03:05:56.977Z,14.82
2022-09-30T03:08:24.407Z,14.79
2022-09-30T03:10:52.856Z,14.73
2022-09-30T03:14:14.885Z,14.67
2022-09-30T03:17:14.968Z,14.63
2022-09-30T03:20:14.568Z,14.61
2022-09-30T03:23:19.238Z,14.57
2022-09-30T03:26:00.694Z,14.47
2022-09-30T03:28:35.842Z,14.39
2022-09-30T03:31:14.420Z,14.35
2022-09-30T03:33:52.574Z,14.41
2022-09-30T03:36:32.136Z,14.50
2022-09-30T03:39:13.328Z,14.56
2022-09-30T03:41:49.943Z,14.53
2022-09-30T03:44:25.488Z,14.48
2022-09-30T03:46:58.849Z,14.44
2022-09-30T03:49:32.873Z,14.42
2022-09-30T03:52:06.286Z,14.39
2022-09-30T03:54:38.949Z,14.40
2022-09-30T03:57:07.950Z,14.39
2022-09-30T03:59:35.213Z,14.34
2022-09-30T04:02:03.473Z,14.31
2022-09-30T04:04:30.788Z,14.33
2022-09-30T04:06:58.093Z,14.33
2022-09-30T04:09:27.253Z,14.30
2022-09-30T04:11:55.922Z,14.29
2022-09-30T04:14:23.155Z,14.29
2022-09-30T04:16:53.794Z,14.29
2022-09-30T04:19:21.647Z,14.28
2022-09-30T04:21:53.015Z,14.30
2022-09-30T04:24:20.425Z,14.31
2022-09-30T04:26:48.501Z,14.34
2022-09-30T04:29:17.392Z,14.31
2022-09-30T04:31:44.724Z,14.30
2022-09-30T04:34:12.284Z,14.28
2022-09-30T04:36:39.920Z,14.27
2022-09-30T04:39:07.245Z,14.23
2022-09-30T04:41:34.552Z,14.18
2022-09-30T04:44:06.319Z,14.12
2022-09-30T04:46:36.819Z,14.13
2022-09-30T04:49:08.989Z,14.17
2022-09-30T04:51:38.624Z,14.23
2022-09-30T04:54:06.240Z,14.33
2022-09-30T04:56:33.537Z,14.40
2022-09-30T04:59:00.777Z,14.50
2022-09-30T05:01:28.020Z,14.55
2022-09-30T05:03:56.724Z,14.58
2022-09-30T05:06:24.217Z,14.59
2022-09-30T05:08:51.550Z,14.57
2022-09-30T05:11:21.918Z,14.56
2022-09-30T05:13:51.103Z,14.64
2022-09-30T05:16:19.298Z,14.66
2022-09-30T05:18:47.042Z,14.71
2022-09-30T05:21:20.803Z,14.79
2022-09-30T05:23:53.582Z,14.88
2022-09-30T05:26:20.859Z,15.01
2022-09-30T05:28:48.166Z,15.12
2022-09-30T05:31:15.555Z,15.19
2022-09-30T05:33:42.992Z,15.23
2022-09-30T05:36:15.826Z,15.28
2022-09-30T05:38:43.409Z,15.35
2022-09-30T05:41:13.193Z,15.41
2022-09-30T05:43:42.021Z,15.45
2022-09-30T05:46:09.309Z,15.52
2022-09-30T05:48:36.868Z,15.50
2022-09-30T05:51:04.753Z,15.41
2022-09-30T05:53:38.752Z,15.31
2022-09-30T05:56:07.704Z,15.20
2022-09-30T05:58:35.920Z,15.08
2022-09-30T06:01:13.240Z,14.95
2022-09-30T06:03:41.279Z,14.82
2022-09-30T06:06:09.485Z,14.69
2022-09-30T06:08:38.154Z,14.58
2022-09-30T06:11:11.892Z,14.50
2022-09-30T06:13:42.112Z,14.46
2022-09-30T06:16:12.525Z,14.38
2022-09-30T06:18:41.522Z,14.29
2022-09-30T06:21:12.180Z,14.29
2022-09-30T06:23:41.242Z,14.28
2022-09-30T06:26:14.588Z,14.27
2022-09-30T06:28:42.886Z,14.30
2022-09-30T06:31:11.337Z,14.31
2022-09-30T06:33:39.032Z,14.35
2022-09-30T06:36:07.206Z,14.43
2022-09-30T06:38:40.318Z,14.51
2022-09-30T06:41:09.789Z,14.77
2022-09-30T06:43:40.542Z,15.12
2022-09-30T06:46:30.340Z,15.56
2022-09-30T06:49:13.315Z,16.10
2022-09-30T06:51:42.092Z,16.68
2022-09-30T06:54:10.281Z,17.10
2022-09-30T06:56:39.215Z,17.35
2022-09-30T06:59:07.111Z,17.36
2022-09-30T07:01:34.613Z,17.19
2022-09-30T07:04:08.019Z,16.92
2022-09-30T07:06:35.606Z,16.50
2022-09-30T07:09:03.149Z,16.19
2022-09-30T07:11:30.479Z,15.99
2022-09-30T07:13:59.139Z,15.90
2022-09-30T07:16:26.567Z,15.88
2022-09-30T07:18:54.377Z,15.90
2022-09-30T07:21:21.714Z,15.94
2022-09-30T07:23:49.242Z,15.94
2022-09-30T07:26:19.827Z,16.02
2022-09-30T07:28:48.420Z,16.14
2022-09-30T07:31:32.324Z,16.20
2022-09-30T07:34:01.142Z,16.28
2022-09-30T07:36:33.164Z,16.36
2022-09-30T07:39:05.367Z,16.42
2022-09-30T07:41:35.949Z,16.49
2022-09-30T07:44:05.575Z,16.57
2022-09-30T07:46:39.016Z,16.57
2022-09-30T07:49:12.777Z,16.65
2022-09-30T07:51:45.195Z,16.82
2022-09-30T07:54:16.286Z,16.88
2022-09-30T07:59:35.837Z,17.05
2022-09-30T08:02:06.313Z,17.16
2022-09-30T08:04:34.363Z,17.25
2022-09-30T08:07:03.500Z,17.24
2022-09-30T08:09:31.777Z,17.29
2022-09-30T08:12:04.616Z,17.37
2022-09-30T08:14:32.346Z,17.44
2022-09-30T08:17:00.566Z,17.62
2022-09-30T08:19:30.922Z,17.83
2022-09-30T08:21:58.738Z,18.10
2022-09-30T08:24:27.603Z,18.59
2022-09-30T08:26:55.938Z,19.52
2022-09-30T08:32:11.255Z,20.93
2022-09-30T08:34:39.881Z,21.18
2022-09-30T08:37:09.569Z,21.21
2022-09-30T08:39:37.252Z,21.10
2022-09-30T08:42:49.200Z,20.75
2022-09-30T08:45:30.942Z,20.54
2022-09-30T08:51:06.115Z,20.34
2022-09-30T08:53:40.074Z,20.98
2022-09-30T08:56:11.723Z,21.80
2022-09-30T08:58:45.373Z,22.39
2022-09-30T09:01:23.926Z,22.98
2022-09-30T09:03:51.423Z,23.90
2022-09-30T09:06:34.587Z,25.13
2022-09-30T09:09:18.859Z,26.19
2022-09-30T09:12:02.749Z,27.02
2022-09-30T09:14:43.060Z,27.57
2022-09-30T09:17:32.042Z,28.07
2022-09-30T09:20:10.574Z,28.31
2022-09-30T09:22:39.462Z,28.54
2022-09-30T09:25:13.015Z,29.07
2022-09-30T09:27:51.319Z,29.77
2022-09-30T09:30:21.886Z,30.60
2022-09-30T09:32:55.352Z,31.36
2022-09-30T09:35:42.883Z,31.74
2022-09-30T09:38:27.667Z,32.41
2022-09-30T09:41:19.273Z,33.06
2022-09-30T09:44:00.483Z,33.54
2022-09-30T09:46:34.557Z,33.59
2022-09-30T09:49:35.970Z,33.56
2022-09-30T09:52:49.330Z,33.62
2022-09-30T09:55:22.883Z,33.86
2022-09-30T09:58:07.137Z,33.41
2022-09-30T10:00:46.602Z,33.03
2022-09-30T10:03:21.220Z,32.37
2022-09-30T10:06:04.244Z,31.88
2022-09-30T10:08:34.440Z,31.87
2022-09-30T10:11:06.412Z,32.27
2022-09-30T10:13:44.028Z,33.24
2022-09-30T10:16:30.858Z,33.94
2022-09-30T10:18:59.577Z,33.72
2022-09-30T10:21:29.681Z,32.47
2022-09-30T10:23:58.106Z,31.54
2022-09-30T10:26:28.762Z,30.32
2022-09-30T10:28:59.703Z,28.96
2022-09-30T10:31:30.509Z,27.88
2022-09-30T10:34:04.391Z,27.05
2022-09-30T10:36:34.742Z,26.45
2022-09-30T10:39:07.760Z,25.96
2022-09-30T10:41:38.541Z,25.49
2022-09-30T10:44:15.262Z,25.05
2022-09-30T10:46:45.364Z,24.73
2022-09-30T10:49:27.559Z,24.31
2022-09-30T10:51:56.360Z,24.08
2022-09-30T10:54:49.438Z,23.80
2022-09-30T10:57:23.434Z,23.73
2022-09-30T10:59:54.743Z,23.59
2022-09-30T11:02:34.754Z,23.51
2022-09-30T11:05:15.237Z,23.49
2022-09-30T11:07:52.653Z,23.58
2022-09-30T11:10:33.971Z,23.63
2022-09-30T11:13:13.471Z,23.60
2022-09-30T11:16:03.540Z,23.47
2022-09-30T11:18:38.103Z,23.24
2022-09-30T11:21:15.573Z,23.02
2022-09-30T11:23:50.909Z,23.02
2022-09-30T11:26:35.581Z,23.00
2022-09-30T11:29:35.733Z,22.75
2022-09-30T11:32:17.324Z,22.59
2022-09-30T11:35:02.886Z,22.63
2022-09-30T11:37:55.771Z,22.67
2022-09-30T11:40:37.046Z,22.66
2022-09-30T11:43:18.941Z,22.84
2022-09-30T11:46:26.858Z,23.26
2022-09-30T11:49:18.910Z,24.02
2022-09-30T11:52:02.946Z,24.65
2022-09-30T11:55:02.626Z,24.77
2022-09-30T11:57:37.676Z,24.57
2022-09-30T12:00:14.879Z,24.32
2022-09-30T12:02:48.371Z,24.14
2022-09-30T12:05:24.953Z,24.05
2022-09-30T12:08:00.978Z,24.19
2022-09-30T12:10:36.067Z,24.40
2022-09-30T12:13:12.397Z,24.79
2022-09-30T12:15:44.553Z,25.04
2022-09-30T12:18:17.908Z,24.60
2022-09-30T12:20:53.772Z,24.03
2022-09-30T12:23:30.585Z,23.66
2022-09-30T12:26:01.782Z,23.49
2022-09-30T12:28:57.862Z,23.54
2022-09-30T12:32:11.718Z,23.92
2022-09-30T12:35:04.127Z,23.74
2022-09-30T12:38:03.385Z,23.51
2022-09-30T12:41:02.604Z,23.64
2022-09-30T12:44:27.304Z,23.78
2022-09-30T12:47:20.719Z,23.70
2022-09-30T12:49:51.191Z,23.66
2022-09-30T12:52:22.311Z,23.58
2022-09-30T12:54:57.228Z,23.35
2022-09-30T12:57:28.655Z,23.21
2022-09-30T13:00:02.328Z,23.02
2022-09-30T13:02:37.578Z,22.96
2022-09-30T13:05:54.025Z,22.87
2022-09-30T13:08:44.733Z,22.79
2022-09-30T13:11:40.992Z,22.67
2022-09-30T13:14:34.962Z,22.78
2022-09-30T13:17:28.196Z,22.95
2022-09-30T13:19:57.367Z,22.98
2022-09-30T13:22:57.075Z,22.74
2022-09-30T13:25:24.508Z,22.71
2022-09-30T13:28:26.450Z,22.56
2022-09-30T13:31:15.523Z,22.34
2022-09-30T13:33:46.766Z,22.48
2022-09-30T13:36:30.706Z,22.79
2022-09-30T13:39:27.792Z,23.30
2022-09-30T13:42:12.253Z,23.29
2022-09-30T13:45:03.406Z,23.38
2022-09-30T13:47:39.489Z,23.80
2022-09-30T13:50:18.000Z,24.00
2022-09-30T13:52:53.703Z,24.26
2022-09-30T13:55:29.755Z,24.22
2022-09-30T13:58:29.188Z,23.94
2022-09-30T14:01:22.782Z,23.89
2022-09-30T14:04:33.226Z,23.87
2022-09-30T14:07:14.178Z,24.04
2022-09-30T14:10:13.884Z,24.43
2022-09-30T14:13:05.910Z,23.98
2022-09-30T14:16:12.788Z,23.78
2022-09-30T14:19:07.262Z,23.70
2022-09-30T14:21:41.774Z,23.53
2022-09-30T14:24:17.458Z,23.19
2022-09-30T14:27:09.175Z,22.89
2022-09-30T14:29:53.487Z,22.55
2022-09-30T14:32:29.122Z,22.35
2022-09-30T14:34:58.818Z,22.16
2022-09-30T14:37:31.198Z,21.96
2022-09-30T14:39:59.930Z,21.83
2022-09-30T14:42:33.231Z,21.73
2022-09-30T14:45:05.223Z,21.64
2022-09-30T14:47:38.456Z,21.59
2022-09-30T14:50:14.851Z,21.60
2022-09-30T14:52:45.317Z,21.63
2022-09-30T14:55:25.626Z,21.66
2022-09-30T14:57:54.911Z,21.80
2022-09-30T15:00:31.447Z,21.85
2022-09-30T15:02:59.984Z,21.81
2022-09-30T15:05:28.727Z,21.63
2022-09-30T15:07:56.350Z,21.59
2022-09-30T15:10:25.412Z,21.57
2022-09-30T15:12:55.095Z,21.64
2022-09-30T15:15:36.144Z,21.65
2022-09-30T15:18:43.015Z,21.52
2022-09-30T15:21:14.455Z,21.52
2022-09-30T15:23:46.715Z,21.55
2022-09-30T15:26:15.638Z,21.55
2022-09-30T15:28:43.311Z,21.50
2022-09-30T15:31:24.561Z,21.43
2022-09-30T15:34:03.861Z,21.34
2022-09-30T15:36:35.269Z,21.35
2022-09-30T15:39:05.816Z,21.38
2022-09-30T15:41:41.300Z,21.39
2022-09-30T15:44:18.969Z,21.34
2022-09-30T15:47:05.084Z,21.18
2022-09-30T15:49:45.487Z,21.02
2022-09-30T15:52:36.516Z,21.03
2022-09-30T15:55:41.675Z,21.03
2022-09-30T15:58:37.997Z,20.98
2022-09-30T16:01:22.091Z,21.00
2022-09-30T16:03:54.765Z,20.98
2022-09-30T16:06:28.579Z,20.97
2022-09-30T16:09:01.363Z,20.94
2022-09-30T16:11:35.017Z,20.85
2022-09-30T16:14:06.129Z,20.75
2022-09-30T16:16:36.618Z,20.73
2022-09-30T16:19:05.611Z,20.71
2022-09-30T16:21:50.503Z,20.66
2022-09-30T16:24:46.269Z,20.51
2022-09-30T16:27:39.012Z,20.46
2022-09-30T16:30:07.930Z,20.45
2022-09-30T16:32:41.609Z,20.40
2022-09-30T16:35:19.984Z,20.38
2022-09-30T16:37:48.787Z,20.41
2022-09-30T16:40:24.717Z,20.38
2022-09-30T16:42:55.022Z,20.38
2022-09-30T16:45:22.877Z,20.35
2022-09-30T16:47:50.618Z,20.31
2022-09-30T16:50:33.510Z,20.24
2022-09-30T16:53:00.820Z,20.24
2022-09-30T16:55:29.197Z,20.22
2022-09-30T16:57:59.151Z,20.16
2022-09-30T17:00:28.492Z,20.13
2022-09-30T17:02:55.938Z,20.10
2022-09-30T17:05:25.406Z,20.07
2022-09-30T17:07:56.472Z,20.00
2022-09-30T17:10:28.925Z,19.94
2022-09-30T17:13:03.477Z,19.90
2022-09-30T17:15:33.524Z,19.86
2022-09-30T17:18:04.963Z,19.79
2022-09-30T17:20:32.265Z,19.74
2022-09-30T17:23:02.591Z,19.69
2022-09-30T17:25:32.615Z,19.62
2022-09-30T17:28:01.817Z,19.56
2022-09-30T17:30:29.184Z,19.54
2022-09-30T17:32:56.426Z,19.51
2022-09-30T17:35:23.716Z,19.48
2022-09-30T17:37:51.056Z,19.43
2022-09-30T17:40:36.914Z,19.39
2022-09-30T17:43:08.501Z,19.30
2022-09-30T17:45:38.310Z,19.27
2022-09-30T17:48:07.854Z,19.24
2022-09-30T17:50:36.500Z,19.17
2022-09-30T17:53:05.966Z,19.09
2022-09-30T17:55:33.840Z,19.03
2022-09-30T17:58:03.317Z,19.01
2022-09-30T18:00:32.489Z,18.98
2022-09-30T18:03:00.020Z,18.93
2022-09-30T18:05:27.541Z,18.90
2022-09-30T18:07:54.922Z,18.86
2022-09-30T18:10:22.216Z,18.82
2022-09-30T18:12:51.745Z,18.73
2022-09-30T18:15:20.624Z,18.70
2022-09-30T18:17:49.924Z,18.65
2022-09-30T18:20:20.628Z,18.62
2022-09-30T18:22:50.672Z,18.55
2022-09-30T18:25:20.880Z,18.51
2022-09-30T18:27:49.429Z,18.46
2022-09-30T18:30:18.823Z,18.45
2022-09-30T18:32:49.573Z,18.46
2022-09-30T18:35:20.279Z,18.43
2022-09-30T18:37:49.656Z,18.41
2022-09-30T18:40:18.334Z,18.38
2022-09-30T18:42:46.616Z,18.36
2022-09-30T18:45:14.144Z,18.36
2022-09-30T18:47:43.971Z,18.34
2022-09-30T18:50:14.089Z,18.30
2022-09-30T18:52:41.351Z,18.29
2022-09-30T18:55:09.812Z,18.26
2022-09-30T18:57:37.932Z,18.20
2022-09-30T19:00:10.283Z,18.16
2022-09-30T19:02:41.279Z,18.13
2022-09-30T19:05:09.539Z,18.11
2022-09-30T19:07:41.088Z,18.09
2022-09-30T19:10:12.565Z,18.07
2022-09-30T19:12:44.595Z,18.05
2022-09-30T19:15:17.279Z,18.01
2022-09-30T19:17:45.842Z,17.95
2022-09-30T19:20:15.362Z,17.91
2022-09-30T19:22:44.241Z,17.88
2022-09-30T19:25:12.791Z,17.85
2022-09-30T19:27:42.046Z,17.86
2022-09-30T19:30:12.293Z,17.87
2022-09-30T19:32:40.729Z,17.88
2022-09-30T19:35:11.872Z,17.85
2022-09-30T19:37:43.030Z,17.84
2022-09-30T19:40:21.592Z,17.80
2022-09-30T19:42:49.756Z,17.76
2022-09-30T19:45:24.020Z,17.74
2022-09-30T19:47:52.759Z,17.72
2022-09-30T19:50:20.041Z,17.72
2022-09-30T19:52:55.737Z,17.73
2022-09-30T19:55:26.559Z,17.72
2022-09-30T19:57:54.382Z,17.73
2022-09-30T20:00:22.026Z,17.74
2022-09-30T20:02:50.595Z,17.68
2022-09-30T20:05:18.454Z,17.61
2022-09-30T20:07:45.933Z,17.56
2022-09-30T20:10:14.236Z,17.50
2022-09-30T20:12:43.781Z,17.49
2022-09-30T20:15:29.500Z,17.45
2022-09-30T20:17:56.925Z,17.42
2022-09-30T20:20:36.972Z,17.38
2022-09-30T20:23:04.448Z,17.34
2022-09-30T20:25:33.550Z,17.33
2022-09-30T20:28:04.083Z,17.31
2022-09-30T20:30:32.170Z,17.31
2022-09-30T20:32:59.808Z,17.26
2022-09-30T20:35:27.206Z,17.27
2022-09-30T20:37:54.930Z,17.25
2022-09-30T20:40:22.539Z,17.24
2022-09-30T20:42:51.864Z,17.23
2022-09-30T20:45:20.477Z,17.23
2022-09-30T20:47:48.042Z,17.20
2022-09-30T20:50:35.026Z,17.22
2022-09-30T20:53:08.115Z,17.21
2022-09-30T20:55:39.306Z,17.22
2022-09-30T20:58:08.791Z,17.25
2022-09-30T21:00:41.497Z,17.28
2022-09-30T21:03:12.058Z,17.31
2022-09-30T21:05:40.186Z,17.32
2022-09-30T21:08:07.523Z,17.31
2022-09-30T21:10:37.134Z,17.32
2022-09-30T21:13:10.183Z,17.33
2022-09-30T21:15:39.492Z,17.33
2022-09-30T21:18:07.470Z,17.33
2022-09-30T21:20:35.461Z,17.30
2022-09-30T21:23:03.436Z,17.24
2022-09-30T21:25:31.047Z,17.12
2022-09-30T21:27:58.575Z,17.00
2022-09-30T21:30:27.024Z,16.98
2022-09-30T21:32:55.666Z,16.97
2022-09-30T21:35:22.939Z,16.94
2022-09-30T21:37:50.284Z,16.94
2022-09-30T21:40:19.028Z,16.95
2022-09-30T21:42:46.617Z,16.97
2022-09-30T21:45:14.000Z,16.96
2022-09-30T21:47:41.280Z,16.95
2022-09-30T21:50:10.825Z,16.93
2022-09-30T21:52:39.167Z,16.88
2022-09-30T21:55:07.271Z,16.87
2022-09-30T21:57:34.774Z,16.89
2022-09-30T22:00:03.530Z,16.90
2022-09-30T22:02:30.960Z,16.87
2022-09-30T22:04:59.594Z,16.85
2022-09-30T22:07:28.472Z,16.80
2022-09-30T22:09:55.723Z,16.80
2022-09-30T22:12:23.348Z,16.83
2022-09-30T22:14:50.717Z,16.84
2022-09-30T22:17:18.123Z,16.85
2022-09-30T22:19:45.603Z,16.86
2022-09-30T22:22:12.954Z,16.89
2022-09-30T22:24:41.587Z,16.93
2022-09-30T22:27:09.086Z,16.91
2022-09-30T22:29:36.446Z,16.93
2022-09-30T22:32:03.851Z,16.95
2022-09-30T22:34:49.658Z,16.91
2022-09-30T22:37:35.614Z,16.83
2022-09-30T22:40:04.943Z,16.80
2022-09-30T22:42:32.315Z,16.85
2022-09-30T22:44:59.754Z,16.85
2022-09-30T22:47:27.395Z,16.83
2022-09-30T22:49:54.678Z,16.82
2022-09-30T22:52:21.983Z,16.85
2022-09-30T22:54:49.234Z,16.81
2022-09-30T22:57:18.067Z,16.80
2022-09-30T22:59:46.528Z,16.79
2022-09-30T23:02:15.105Z,16.76
2022-09-30T23:04:44.117Z,16.74
2022-09-30T23:07:11.423Z,16.75
2022-09-30T23:09:38.681Z,16.77
2022-09-30T23:12:06.207Z,16.74
2022-09-30T23:14:34.887Z,16.79
2022-09-30T23:17:02.211Z,16.82
2022-09-30T23:19:29.542Z,16.77
2022-09-30T23:21:56.987Z,16.76
2022-09-30T23:24:24.258Z,16.81
2022-09-30T23:26:51.554Z,16.83
2022-09-30T23:29:18.782Z,16.80
2022-09-30T23:31:48.151Z,16.80
2022-09-30T23:34:17.282Z,16.81
2022-09-30T23:36:44.574Z,16.80
2022-09-30T23:39:18.466Z,16.83
2022-09-30T23:41:46.503Z,16.87
2022-09-30T23:44:15.533Z,16.91
2022-09-30T23:47:02.726Z,16.91
2022-09-30T23:49:38.379Z,16.93
2022-09-30T23:52:11.963Z,16.97
2022-09-30T23:54:40.706Z,16.95
2022-09-30T23:57:08.361Z,16.95
2022-09-30T23:59:35.627Z,16.89
